Minerva Zen — SVBN3 — position and weather

sailwx.info

Track history (hours):
 
Tides and Currents Weather Stations Pressure Air Temp Water Temp Dewpoint Dewpoint Depression Visibility Wind Speed Wind Dir Waves Ship Positions

Minerva Zen

Last reported at 2018-Feb-20 04:01 UTC. Time now 2018-Feb-20 04:15 UTC.
Position N 38°11' W 010°03'.

Length 183 m; draft 12.6 m.

Type: Ship. MMSI: 241190000.

Date/timePositionNaut miles runAvg speedWind from/ knotsBaromVisibWave heightAir tempDewpointWater temp
2018-Feb-20 04:01N 38°11' W 010°03'611.7
2018-Feb-20 03:31N 38°16' W 010°04'612.1
2018-Feb-20 03:00N 38°22' W 010°06'612.4
2018-Feb-20 02:30N 38°28' W 010°08'612.2
2018-Feb-20 02:00N 38°34' W 010°10'711.9
2018-Feb-20 01:25N 38°41' W 010°12'512.2
2018-Feb-20 01:00N 38°46' W 010°12'1012.0
2018-Feb-20 00:10N 38°56' W 010°12'212.3
2018-Feb-19 23:58N 38°59' W 010°12'612.1
2018-Feb-19 23:30N 39°04' W 010°12'612.2
2018-Feb-19 23:00N 39°10' W 010°12'611.7
2018-Feb-19 22:30N 39°16' W 010°12'  
2018-Feb-17 17:01N 48°50' W 005°51'110.0
2018-Feb-17 16:55N 48°50' W 005°50'5 9.8
2018-Feb-17 16:26N 48°54' W 005°46'5 9.9
2018-Feb-17 15:55N 48°57' W 005°39'410.0
2018-Feb-17 15:30N 48°59' W 005°34'710.4
2018-Feb-17 14:51N 49°03' W 005°25'1711.5
2018-Feb-17 13:22N 49°11' W 005°02'712.7
2018-Feb-17 12:47N 49°15' W 004°52'513.3
2018-Feb-17 12:25N 49°17' W 004°46'2913.5
2018-Feb-17 10:14N 49°32' W 004°07'412.9
2018-Feb-17 09:57N 49°34' W 004°02'3211.4
2018-Feb-17 07:10N 49°51' W 003°20'1510.8
2018-Feb-17 05:48N 49°57' W 002°60'311.6
2018-Feb-17 05:30N 49°59' W 002°55'612.3
2018-Feb-17 04:59N 50°01' W 002°45'613.2
2018-Feb-17 04:30N 50°02' W 002°36'714.2
2018-Feb-17 04:00N 50°04' W 002°25'1115.3
2018-Feb-17 03:17N 50°07' W 002°08'416.0
2018-Feb-17 03:00N 50°08' W 002°02'816.2
2018-Feb-17 02:30N 50°11' W 001°50'816.0
2018-Feb-17 02:01N 50°13' W 001°38'815.6
2018-Feb-17 01:30N 50°15' W 001°26'714.9
2018-Feb-17 01:01N 50°17' W 001°15'714.0
2018-Feb-17 00:30N 50°18' W 001°04'3611.2
2018-Feb-16 21:18N 50°28' W 000°10'310.7
2018-Feb-16 20:58N 50°29' W 000°04'711.0
2018-Feb-16 20:23N 50°31' E 000°05'411.3
2018-Feb-16 20:00N 50°32' E 000°12'612.0
2018-Feb-16 19:30N 50°34' E 000°21'613.0
2018-Feb-16 19:00N 50°36' E 000°31'713.5
2018-Feb-16 18:30N 50°39' E 000°40'713.9
2018-Feb-16 18:00N 50°42' E 000°50'714.2
2018-Feb-16 17:30N 50°46' E 000°59'713.9
2018-Feb-16 17:00N 50°50' E 001°08'713.5
2018-Feb-16 16:29N 50°54' E 001°17'713.0
2018-Feb-16 15:58N 50°59' E 001°24'612.2
2018-Feb-16 15:30N 51°03' E 001°31'611.3
2018-Feb-16 15:00N 51°07' E 001°37'510.7
2018-Feb-16 14:30N 51°11' E 001°43'510.4
2018-Feb-16 14:00N 51°15' E 001°48'510.4
2018-Feb-16 13:30N 51°20' E 001°52'510.9
2018-Feb-16 13:00N 51°25' E 001°55'611.4
2018-Feb-16 12:30N 51°30' E 001°59'612.2
2018-Feb-16 12:00N 51°34' E 002°06'612.4
2018-Feb-16 11:30N 51°39' E 002°13'613.0
2018-Feb-16 11:00N 51°44' E 002°20'713.7
2018-Feb-16 10:30N 51°49' E 002°27'449 9.3
2018-Feb-14 10:02N 57°54' E 010°02'411.1
2018-Feb-14 09:42N 57°56' E 010°09'210.8
2018-Feb-14 09:30N 57°57' E 010°12'510.8
2018-Feb-14 09:00N 57°59' E 010°21'511.1
2018-Feb-14 08:30N 58°02' E 010°30'611.1
2018-Feb-14 08:00N 58°05' E 010°39'611.1
2018-Feb-14 07:30N 58°07' E 010°48'611.2
2018-Feb-14 07:00N 58°10' E 010°57'510.9
2018-Feb-14 06:30N 58°13' E 011°06'4 8.9
2018-Feb-14 06:00N 58°16' E 011°13'4 7.5
2018-Feb-14 05:30N 58°18' E 011°19'4 8.7
2018-Feb-14 05:00N 58°21' E 011°25'1 0.0
2018-Feb-12 15:39N 58°21' E 011°26'0 0.0
2018-Feb-12 15:31N 58°21' E 011°26'1 2.4
2018-Feb-12 15:00N 58°21' E 011°24'611.3
2018-Feb-12 14:31N 58°17' E 011°17'610.7
2018-Feb-12 14:00N 58°12' E 011°11'1 1.4
2018-Feb-12 13:30N 58°12' E 011°11'0 0.2
2018-Feb-12 12:58N 58°12' E 011°10'0 0.1
2018-Feb-12 12:28N 58°12' E 011°10'0 0.0
2018-Feb-12 11:58N 58°12' E 011°10'0 0.0
2018-Feb-12 11:28N 58°12' E 011°10'0 0.0
2018-Feb-12 10:58N 58°12' E 011°10'0 0.0
2018-Feb-12 10:25N 58°12' E 011°10'0 0.0
2018-Feb-12 09:58N 58°12' E 011°10'0 0.0
2018-Feb-12 09:28N 58°12' E 011°10'0 0.0
2018-Feb-12 08:58N 58°12' E 011°10'0 0.0
2018-Feb-12 08:28N 58°12' E 011°10'0 0.0
2018-Feb-12 07:55N 58°12' E 011°10'0 0.0
2018-Feb-12 07:28N 58°12' E 011°10'0 0.0
2018-Feb-12 06:58N 58°12' E 011°10'0 0.1
2018-Feb-12 06:28N 58°12' E 011°10'0 0.0
2018-Feb-12 05:55N 58°12' E 011°10'0 0.0
2018-Feb-12 05:28N 58°12' E 011°10'0 0.0
2018-Feb-12 04:58N 58°12' E 011°10'0 0.0
2018-Feb-12 04:28N 58°12' E 011°10'0 0.0
2018-Feb-12 03:58N 58°12' E 011°10'0 0.0
2018-Feb-12 03:28N 58°12' E 011°10'0 0.0
2018-Feb-12 02:58N 58°12' E 011°10'0 0.0
2018-Feb-12 02:22N 58°12' E 011°10'0 0.0
2018-Feb-12 01:58N 58°12' E 011°10'0 0.0
2018-Feb-12 01:28N 58°12' E 011°10'0 0.0
2018-Feb-12 00:55N 58°12' E 011°10'0 0.0
2018-Feb-12 00:28N 58°12' E 011°10'0 0.1
2018-Feb-11 23:55N 58°12' E 011°10'0 0.0
2018-Feb-11 23:28N 58°12' E 011°10'0 0.0
2018-Feb-11 22:58N 58°12' E 011°10'0 0.0
2018-Feb-11 22:28N 58°12' E 011°10'0 0.0
2018-Feb-11 21:55N 58°12' E 011°10'0 0.0
2018-Feb-11 21:28N 58°12' E 011°10'0 0.0
2018-Feb-11 20:58N 58°12' E 011°10'0 0.0
2018-Feb-11 20:28N 58°12' E 011°10'0 0.0
2018-Feb-11 19:58N 58°12' E 011°10'0 0.0
2018-Feb-11 19:22N 58°12' E 011°10'0 0.0
2018-Feb-11 18:52N 58°12' E 011°10'0 0.0
2018-Feb-11 18:28N 58°12' E 011°10'0 0.0
2018-Feb-11 17:58N 58°12' E 011°10'0 0.0
2018-Feb-11 17:28N 58°12' E 011°10'0 0.0
2018-Feb-11 16:58N 58°12' E 011°10'0 0.0
2018-Feb-11 16:28N 58°12' E 011°10'0 0.0
2018-Feb-11 15:58N 58°12' E 011°10'0 0.0
2018-Feb-11 15:28N 58°12' E 011°10'0 0.0
2018-Feb-11 14:58N 58°12' E 011°10'0 0.0
2018-Feb-11 14:28N 58°12' E 011°10'0 0.0
2018-Feb-11 13:58N 58°12' E 011°10'0 0.0
2018-Feb-11 13:28N 58°12' E 011°10'0 0.0
2018-Feb-11 12:58N 58°12' E 011°10'0 0.0
2018-Feb-11 12:28N 58°12' E 011°10'0 0.0
2018-Feb-11 11:58N 58°12' E 011°10'0 0.0
2018-Feb-11 11:28N 58°12' E 011°10'0 0.0
2018-Feb-11 10:58N 58°12' E 011°10'0 0.0
2018-Feb-11 10:28N 58°12' E 011°10'0 0.0
2018-Feb-11 09:55N 58°12' E 011°10'0 0.0
2018-Feb-11 09:28N 58°12' E 011°10'0 0.0
2018-Feb-11 08:58N 58°12' E 011°10'0 0.0
2018-Feb-11 08:28N 58°12' E 011°10'0 0.0
2018-Feb-11 07:58N 58°12' E 011°10'0 0.0
2018-Feb-11 07:28N 58°12' E 011°10'0 0.0
2018-Feb-11 06:58N 58°12' E 011°10'0 0.0
2018-Feb-11 06:28N 58°12' E 011°10'0 0.0
2018-Feb-11 05:58N 58°12' E 011°10'0 0.0
2018-Feb-11 05:28N 58°12' E 011°10'0 0.0
2018-Feb-11 04:58N 58°12' E 011°10'0 0.0
2018-Feb-11 04:25N 58°12' E 011°10'0 0.0
2018-Feb-11 03:58N 58°12' E 011°10'0 0.0
2018-Feb-11 03:28N 58°12' E 011°10'0 0.0
2018-Feb-11 02:58N 58°12' E 011°10'0 0.0
2018-Feb-11 02:28N 58°12' E 011°10'0 0.0
2018-Feb-11 01:58N 58°12' E 011°10'0 0.0
2018-Feb-11 01:25N 58°12' E 011°10'0 0.0
2018-Feb-11 00:58N 58°12' E 011°10'0 0.1
2018-Feb-11 00:28N 58°12' E 011°10'0 0.0
2018-Feb-10 23:58N 58°12' E 011°10'0 0.0
2018-Feb-10 23:28N 58°12' E 011°10'0 0.0
2018-Feb-10 22:58N 58°12' E 011°10'0 0.0
2018-Feb-10 22:28N 58°12' E 011°10'0 0.0
2018-Feb-10 21:58N 58°12' E 011°10'0 0.0
2018-Feb-10 21:25N 58°12' E 011°10'0 0.0
2018-Feb-10 20:58N 58°12' E 011°10'0 0.0
2018-Feb-10 20:25N 58°12' E 011°10'0 0.0
2018-Feb-10 19:58N 58°12' E 011°10'0 0.0
2018-Feb-10 19:28N 58°12' E 011°10'0 0.0
2018-Feb-10 18:58N 58°12' E 011°10'0 0.0
2018-Feb-10 18:22N 58°12' E 011°10'0 0.0
2018-Feb-10 17:55N 58°12' E 011°10'0 0.0
2018-Feb-10 17:28N 58°12' E 011°10'0 0.0
2018-Feb-10 16:58N 58°12' E 011°10'0 0.0
2018-Feb-10 16:28N 58°12' E 011°10'0 0.0
2018-Feb-10 15:58N 58°12' E 011°10'0 0.0
2018-Feb-10 15:28N 58°12' E 011°10'0 0.0
2018-Feb-10 14:58N 58°12' E 011°10'0 0.0
2018-Feb-10 14:28N 58°12' E 011°10'0 0.0
2018-Feb-10 13:52N 58°12' E 011°10'0 0.0
2018-Feb-10 13:25N 58°12' E 011°10'0 0.0
2018-Feb-10 12:55N 58°12' E 011°10'0 0.0
2018-Feb-10 12:28N 58°12' E 011°10'0 0.0
2018-Feb-10 11:58N 58°12' E 011°10'0 0.0
2018-Feb-10 11:28N 58°12' E 011°10'0 0.1
2018-Feb-10 10:58N 58°12' E 011°10'0 0.0
2018-Feb-10 10:28N 58°12' E 011°10'0 0.0
2018-Feb-10 09:58N 58°12' E 011°10'0 0.0
2018-Feb-10 09:28N 58°12' E 011°10'0 0.0
2018-Feb-10 08:58N 58°12' E 011°10'0 0.0
2018-Feb-10 08:28N 58°12' E 011°10'0 0.0
2018-Feb-10 07:55N 58°12' E 011°10'0 0.0
2018-Feb-10 07:28N 58°12' E 011°10'0 0.0
2018-Feb-10 06:55N 58°12' E 011°10'0 0.0
2018-Feb-10 06:28N 58°12' E 011°10'0 0.0
2018-Feb-10 05:58N 58°12' E 011°10'0 0.0
2018-Feb-10 05:28N 58°12' E 011°10'0 0.0
2018-Feb-10 04:58N 58°12' E 011°10'0 0.0
2018-Feb-10 04:28N 58°12' E 011°10'  
Track history (hours):
 
Tides and Currents Weather Stations Pressure Air Temp Water Temp Dewpoint Dewpoint Depression Visibility Wind Speed Wind Dir Waves Ship Positions

Minerva Zen

Last reported at 2018-Feb-20 04:01 UTC. Time now 2018-Feb-20 04:15 UTC.
Position N 38°11' W 010°03'.

Length 183 m; draft 12.6 m.

Type: Ship. MMSI: 241190000.

Date/timePositionNaut miles runAvg speedWind from/ knotsBaromVisibWave heightAir tempDewpointWater temp
2018-Feb-20 04:01N 38°11' W 010°03'611.7
2018-Feb-20 03:31N 38°16' W 010°04'612.1
2018-Feb-20 03:00N 38°22' W 010°06'612.4
2018-Feb-20 02:30N 38°28' W 010°08'612.2
2018-Feb-20 02:00N 38°34' W 010°10'711.9
2018-Feb-20 01:25N 38°41' W 010°12'512.2
2018-Feb-20 01:00N 38°46' W 010°12'1012.0
2018-Feb-20 00:10N 38°56' W 010°12'212.3
2018-Feb-19 23:58N 38°59' W 010°12'612.1
2018-Feb-19 23:30N 39°04' W 010°12'612.2
2018-Feb-19 23:00N 39°10' W 010°12'611.7
2018-Feb-19 22:30N 39°16' W 010°12'  
2018-Feb-17 17:01N 48°50' W 005°51'110.0
2018-Feb-17 16:55N 48°50' W 005°50'5 9.8
2018-Feb-17 16:26N 48°54' W 005°46'5 9.9
2018-Feb-17 15:55N 48°57' W 005°39'410.0
2018-Feb-17 15:30N 48°59' W 005°34'710.4
2018-Feb-17 14:51N 49°03' W 005°25'1711.5
2018-Feb-17 13:22N 49°11' W 005°02'712.7
2018-Feb-17 12:47N 49°15' W 004°52'513.3
2018-Feb-17 12:25N 49°17' W 004°46'2913.5
2018-Feb-17 10:14N 49°32' W 004°07'412.9
2018-Feb-17 09:57N 49°34' W 004°02'3211.4
2018-Feb-17 07:10N 49°51' W 003°20'1510.8
2018-Feb-17 05:48N 49°57' W 002°60'311.6
2018-Feb-17 05:30N 49°59' W 002°55'612.3
2018-Feb-17 04:59N 50°01' W 002°45'613.2
2018-Feb-17 04:30N 50°02' W 002°36'714.2
2018-Feb-17 04:00N 50°04' W 002°25'1115.3
2018-Feb-17 03:17N 50°07' W 002°08'416.0
2018-Feb-17 03:00N 50°08' W 002°02'816.2
2018-Feb-17 02:30N 50°11' W 001°50'816.0
2018-Feb-17 02:01N 50°13' W 001°38'815.6
2018-Feb-17 01:30N 50°15' W 001°26'714.9
2018-Feb-17 01:01N 50°17' W 001°15'714.0
2018-Feb-17 00:30N 50°18' W 001°04'3611.2
2018-Feb-16 21:18N 50°28' W 000°10'310.7
2018-Feb-16 20:58N 50°29' W 000°04'711.0
2018-Feb-16 20:23N 50°31' E 000°05'411.3
2018-Feb-16 20:00N 50°32' E 000°12'612.0
2018-Feb-16 19:30N 50°34' E 000°21'613.0
2018-Feb-16 19:00N 50°36' E 000°31'713.5
2018-Feb-16 18:30N 50°39' E 000°40'713.9
2018-Feb-16 18:00N 50°42' E 000°50'714.2
2018-Feb-16 17:30N 50°46' E 000°59'713.9
2018-Feb-16 17:00N 50°50' E 001°08'713.5
2018-Feb-16 16:29N 50°54' E 001°17'713.0
2018-Feb-16 15:58N 50°59' E 001°24'612.2
2018-Feb-16 15:30N 51°03' E 001°31'611.3
2018-Feb-16 15:00N 51°07' E 001°37'510.7
2018-Feb-16 14:30N 51°11' E 001°43'510.4
2018-Feb-16 14:00N 51°15' E 001°48'510.4
2018-Feb-16 13:30N 51°20' E 001°52'510.9
2018-Feb-16 13:00N 51°25' E 001°55'611.4
2018-Feb-16 12:30N 51°30' E 001°59'612.2
2018-Feb-16 12:00N 51°34' E 002°06'612.4
2018-Feb-16 11:30N 51°39' E 002°13'613.0
2018-Feb-16 11:00N 51°44' E 002°20'713.7
2018-Feb-16 10:30N 51°49' E 002°27'449 9.3
2018-Feb-14 10:02N 57°54' E 010°02'411.1
2018-Feb-14 09:42N 57°56' E 010°09'210.8
2018-Feb-14 09:30N 57°57' E 010°12'510.8
2018-Feb-14 09:00N 57°59' E 010°21'511.1
2018-Feb-14 08:30N 58°02' E 010°30'611.1
2018-Feb-14 08:00N 58°05' E 010°39'611.1
2018-Feb-14 07:30N 58°07' E 010°48'611.2
2018-Feb-14 07:00N 58°10' E 010°57'510.9
2018-Feb-14 06:30N 58°13' E 011°06'4 8.9
2018-Feb-14 06:00N 58°16' E 011°13'4 7.5
2018-Feb-14 05:30N 58°18' E 011°19'4 8.7
2018-Feb-14 05:00N 58°21' E 011°25'1 0.0
2018-Feb-12 15:39N 58°21' E 011°26'0 0.0
2018-Feb-12 15:31N 58°21' E 011°26'1 2.4
2018-Feb-12 15:00N 58°21' E 011°24'611.3
2018-Feb-12 14:31N 58°17' E 011°17'610.7
2018-Feb-12 14:00N 58°12' E 011°11'1 1.4
2018-Feb-12 13:30N 58°12' E 011°11'0 0.2
2018-Feb-12 12:58N 58°12' E 011°10'0 0.1
2018-Feb-12 12:28N 58°12' E 011°10'0 0.0
2018-Feb-12 11:58N 58°12' E 011°10'0 0.0
2018-Feb-12 11:28N 58°12' E 011°10'0 0.0
2018-Feb-12 10:58N 58°12' E 011°10'0 0.0
2018-Feb-12 10:25N 58°12' E 011°10'0 0.0
2018-Feb-12 09:58N 58°12' E 011°10'0 0.0
2018-Feb-12 09:28N 58°12' E 011°10'0 0.0
2018-Feb-12 08:58N 58°12' E 011°10'0 0.0
2018-Feb-12 08:28N 58°12' E 011°10'0 0.0
2018-Feb-12 07:55N 58°12' E 011°10'0 0.0
2018-Feb-12 07:28N 58°12' E 011°10'0 0.0
2018-Feb-12 06:58N 58°12' E 011°10'0 0.1
2018-Feb-12 06:28N 58°12' E 011°10'0 0.0
2018-Feb-12 05:55N 58°12' E 011°10'0 0.0
2018-Feb-12 05:28N 58°12' E 011°10'0 0.0
2018-Feb-12 04:58N 58°12' E 011°10'0 0.0
2018-Feb-12 04:28N 58°12' E 011°10'0 0.0
2018-Feb-12 03:58N 58°12' E 011°10'0 0.0
2018-Feb-12 03:28N 58°12' E 011°10'0 0.0
2018-Feb-12 02:58N 58°12' E 011°10'0 0.0
2018-Feb-12 02:22N 58°12' E 011°10'0 0.0
2018-Feb-12 01:58N 58°12' E 011°10'0 0.0
2018-Feb-12 01:28N 58°12' E 011°10'0 0.0
2018-Feb-12 00:55N 58°12' E 011°10'0 0.0
2018-Feb-12 00:28N 58°12' E 011°10'0 0.1
2018-Feb-11 23:55N 58°12' E 011°10'0 0.0
2018-Feb-11 23:28N 58°12' E 011°10'0 0.0
2018-Feb-11 22:58N 58°12' E 011°10'0 0.0
2018-Feb-11 22:28N 58°12' E 011°10'0 0.0
2018-Feb-11 21:55N 58°12' E 011°10'0 0.0
2018-Feb-11 21:28N 58°12' E 011°10'0 0.0
2018-Feb-11 20:58N 58°12' E 011°10'0 0.0
2018-Feb-11 20:28N 58°12' E 011°10'0 0.0
2018-Feb-11 19:58N 58°12' E 011°10'0 0.0
2018-Feb-11 19:22N 58°12' E 011°10'0 0.0
2018-Feb-11 18:52N 58°12' E 011°10'0 0.0
2018-Feb-11 18:28N 58°12' E 011°10'0 0.0
2018-Feb-11 17:58N 58°12' E 011°10'0 0.0
2018-Feb-11 17:28N 58°12' E 011°10'0 0.0
2018-Feb-11 16:58N 58°12' E 011°10'0 0.0
2018-Feb-11 16:28N 58°12' E 011°10'0 0.0
2018-Feb-11 15:58N 58°12' E 011°10'0 0.0
2018-Feb-11 15:28N 58°12' E 011°10'0 0.0
2018-Feb-11 14:58N 58°12' E 011°10'0 0.0
2018-Feb-11 14:28N 58°12' E 011°10'0 0.0
2018-Feb-11 13:58N 58°12' E 011°10'0 0.0
2018-Feb-11 13:28N 58°12' E 011°10'0 0.0
2018-Feb-11 12:58N 58°12' E 011°10'0 0.0
2018-Feb-11 12:28N 58°12' E 011°10'0 0.0
2018-Feb-11 11:58N 58°12' E 011°10'0 0.0
2018-Feb-11 11:28N 58°12' E 011°10'0 0.0
2018-Feb-11 10:58N 58°12' E 011°10'0 0.0
2018-Feb-11 10:28N 58°12' E 011°10'0 0.0
2018-Feb-11 09:55N 58°12' E 011°10'0 0.0
2018-Feb-11 09:28N 58°12' E 011°10'0 0.0
2018-Feb-11 08:58N 58°12' E 011°10'0 0.0
2018-Feb-11 08:28N 58°12' E 011°10'0 0.0
2018-Feb-11 07:58N 58°12' E 011°10'0 0.0
2018-Feb-11 07:28N 58°12' E 011°10'0 0.0
2018-Feb-11 06:58N 58°12' E 011°10'0 0.0
2018-Feb-11 06:28N 58°12' E 011°10'0 0.0
2018-Feb-11 05:58N 58°12' E 011°10'0 0.0
2018-Feb-11 05:28N 58°12' E 011°10'0 0.0
2018-Feb-11 04:58N 58°12' E 011°10'0 0.0
2018-Feb-11 04:25N 58°12' E 011°10'0 0.0
2018-Feb-11 03:58N 58°12' E 011°10'0 0.0
2018-Feb-11 03:28N 58°12' E 011°10'0 0.0
2018-Feb-11 02:58N 58°12' E 011°10'0 0.0
2018-Feb-11 02:28N 58°12' E 011°10'0 0.0
2018-Feb-11 01:58N 58°12' E 011°10'0 0.0
2018-Feb-11 01:25N 58°12' E 011°10'0 0.0
2018-Feb-11 00:58N 58°12' E 011°10'0 0.1
2018-Feb-11 00:28N 58°12' E 011°10'0 0.0
2018-Feb-10 23:58N 58°12' E 011°10'0 0.0
2018-Feb-10 23:28N 58°12' E 011°10'0 0.0
2018-Feb-10 22:58N 58°12' E 011°10'0 0.0
2018-Feb-10 22:28N 58°12' E 011°10'0 0.0
2018-Feb-10 21:58N 58°12' E 011°10'0 0.0
2018-Feb-10 21:25N 58°12' E 011°10'0 0.0
2018-Feb-10 20:58N 58°12' E 011°10'0 0.0
2018-Feb-10 20:25N 58°12' E 011°10'0 0.0
2018-Feb-10 19:58N 58°12' E 011°10'0 0.0
2018-Feb-10 19:28N 58°12' E 011°10'0 0.0
2018-Feb-10 18:58N 58°12' E 011°10'0 0.0
2018-Feb-10 18:22N 58°12' E 011°10'0 0.0
2018-Feb-10 17:55N 58°12' E 011°10'0 0.0
2018-Feb-10 17:28N 58°12' E 011°10'0 0.0
2018-Feb-10 16:58N 58°12' E 011°10'0 0.0
2018-Feb-10 16:28N 58°12' E 011°10'0 0.0
2018-Feb-10 15:58N 58°12' E 011°10'0 0.0
2018-Feb-10 15:28N 58°12' E 011°10'0 0.0
2018-Feb-10 14:58N 58°12' E 011°10'0 0.0
2018-Feb-10 14:28N 58°12' E 011°10'0 0.0
2018-Feb-10 13:52N 58°12' E 011°10'0 0.0
2018-Feb-10 13:25N 58°12' E 011°10'0 0.0
2018-Feb-10 12:55N 58°12' E 011°10'0 0.0
2018-Feb-10 12:28N 58°12' E 011°10'0 0.0
2018-Feb-10 11:58N 58°12' E 011°10'0 0.0
2018-Feb-10 11:28N 58°12' E 011°10'0 0.1
2018-Feb-10 10:58N 58°12' E 011°10'0 0.0
2018-Feb-10 10:28N 58°12' E 011°10'0 0.0
2018-Feb-10 09:58N 58°12' E 011°10'0 0.0
2018-Feb-10 09:28N 58°12' E 011°10'0 0.0
2018-Feb-10 08:58N 58°12' E 011°10'0 0.0
2018-Feb-10 08:28N 58°12' E 011°10'0 0.0
2018-Feb-10 07:55N 58°12' E 011°10'0 0.0
2018-Feb-10 07:28N 58°12' E 011°10'0 0.0
2018-Feb-10 06:55N 58°12' E 011°10'0 0.0
2018-Feb-10 06:28N 58°12' E 011°10'0 0.0
2018-Feb-10 05:58N 58°12' E 011°10'0 0.0
2018-Feb-10 05:28N 58°12' E 011°10'0 0.0
2018-Feb-10 04:58N 58°12' E 011°10'0 0.0
2018-Feb-10 04:28N 58°12' E 011°10'  

Dump ship's entire track history